Time;durP1;ratioP1;P1;durP2;ratioP2;P2;SDS_P1;SDS_P2;PMS_P1;PMS_P2;Temp;Humidity;BMP_temperature;BMP_pressure;BME280_temperature;BME280_humidity;BME280_pressure;Samples;Min_cycle;Max_cycle;Signal;HPM_P1;HPM_P2
2022/06/07 00:01:27;;;;;;;;;0.00;0.00;;;;;;;;5103182;28;11084;-78
2022/06/07 00:03:53;;;;;;;;;0.00;0.00;;;;;;;;5103337;28;8803;-78
2022/06/07 00:06:18;;;;;;;;;2.50;0.00;;;;;;;;5103450;28;8787;-78
2022/06/07 00:08:43;;;;;;;;;0.25;0.00;;;;;;;;5102868;28;8805;-77
2022/06/07 00:11:10;;;;;;;;;2.75;1.00;;;;;;;;5085207;28;8853;-78
2022/06/07 00:13:35;;;;;;;;;0.50;0.50;;;;;;;;5102776;28;8757;-78
2022/06/07 00:16:01;;;;;;;;;1.25;0.75;;;;;;;;5102630;28;10142;-78
2022/06/07 00:18:26;;;;;;;;;0.00;0.00;;;;;;;;5085071;28;10032;-78
2022/06/07 00:20:51;;;;;;;;;0.25;0.25;;;;;;;;5101991;28;8945;-78
2022/06/07 00:23:18;;;;;;;;;0.00;0.00;;;;;;;;5103396;28;8798;-78
2022/06/07 00:25:45;;;;;;;;;2.00;0.75;;;;;;;;5084659;28;8967;-77
2022/06/07 00:28:11;;;;;;;;;0.00;0.00;;;;;;;;5084433;28;10215;-78
2022/06/07 00:30:36;;;;;;;;;0.75;0.75;;;;;;;;5102861;28;9876;-78
2022/06/07 00:33:02;;;;;;;;;0.00;0.00;;;;;;;;5102797;28;8860;-77
2022/06/07 00:35:27;;;;;;;;;0.00;0.00;;;;;;;;5103302;28;8791;-77
2022/06/07 00:37:52;;;;;;;;;0.00;0.00;;;;;;;;5102469;28;8852;-78
2022/06/07 00:40:18;;;;;;;;;0.00;0.00;;;;;;;;5102819;28;8850;-78
2022/06/07 00:42:43;;;;;;;;;0.00;0.00;;;;;;;;5102618;28;8787;-78
2022/06/07 00:45:13;;;;;;;;;2.25;0.00;;;;;;;;5102097;28;8782;-78
2022/06/07 00:47:38;;;;;;;;;0.00;0.00;;;;;;;;5102962;28;8806;-78
2022/06/07 00:50:03;;;;;;;;;0.25;0.00;;;;;;;;5102615;28;9733;-78
2022/06/07 00:52:30;;;;;;;;;0.75;0.00;;;;;;;;5084663;28;8822;-78
2022/06/07 00:54:56;;;;;;;;;0.50;0.50;;;;;;;;5084044;28;8783;-78
2022/06/07 00:57:22;;;;;;;;;2.00;1.00;;;;;;;;5102309;28;10561;-78
2022/06/07 00:59:47;;;;;;;;;0.50;0.50;;;;;;;;5102533;28;8781;-78
2022/06/07 01:02:13;;;;;;;;;0.00;0.00;;;;;;;;5102358;28;8858;-77
2022/06/07 01:04:38;;;;;;;;;0.00;0.00;;;;;;;;5084310;28;8792;-78
2022/06/07 01:12:34;;;;;;;;;2.00;0.00;;;;;;;;5102735;28;9841;-78
2022/06/07 01:14:59;;;;;;;;;0.00;0.00;;;;;;;;5102049;28;9966;-78
2022/06/07 01:17:25;;;;;;;;;0.00;0.00;;;;;;;;5102475;28;9809;-77
2022/06/07 01:19:50;;;;;;;;;0.00;0.00;;;;;;;;5102296;28;8777;-78
2022/06/07 01:22:16;;;;;;;;;2.00;0.00;;;;;;;;5084166;28;9719;-78
2022/06/07 01:24:42;;;;;;;;;0.00;0.00;;;;;;;;5083517;28;8919;-78
2022/06/07 01:27:07;;;;;;;;;0.75;0.75;;;;;;;;5102500;28;8776;-78
2022/06/07 01:29:33;;;;;;;;;1.25;0.00;;;;;;;;5084076;28;8773;-78
2022/06/07 01:31:58;;;;;;;;;1.75;0.00;;;;;;;;5083887;28;8896;-77
2022/06/07 01:34:23;;;;;;;;;0.00;0.00;;;;;;;;5106120;28;8796;-78
2022/06/07 01:36:49;;;;;;;;;2.00;0.50;;;;;;;;5105944;28;8863;-78
2022/06/07 01:41:58;;;;;;;;;0.00;0.00;;;;;;;;5105574;28;8749;-78
2022/06/07 01:44:28;;;;;;;;;0.00;0.00;;;;;;;;5087498;28;9895;-78
2022/06/07 01:46:54;;;;;;;;;0.00;0.00;;;;;;;;5087111;28;8796;-78
2022/06/07 01:49:19;;;;;;;;;2.00;1.00;;;;;;;;5087078;28;9975;-78
2022/06/07 01:51:45;;;;;;;;;2.00;0.25;;;;;;;;5105572;28;11411;-78
2022/06/07 01:54:10;;;;;;;;;0.00;0.00;;;;;;;;5105084;28;8807;-78
2022/06/07 01:56:36;;;;;;;;;1.00;1.00;;;;;;;;5105420;28;8818;-78
2022/06/07 01:59:01;;;;;;;;;0.00;0.00;;;;;;;;5119854;28;8809;-78
2022/06/07 02:01:26;;;;;;;;;0.25;0.25;;;;;;;;5125296;28;8931;-78
2022/06/07 02:03:51;;;;;;;;;1.00;0.00;;;;;;;;5125919;28;8792;-78
2022/06/07 02:06:17;;;;;;;;;1.00;1.00;;;;;;;;5125562;28;8788;-78
2022/06/07 02:08:42;;;;;;;;;0.00;0.00;;;;;;;;5106738;28;8861;-78
2022/06/07 02:11:09;;;;;;;;;0.00;0.00;;;;;;;;5125583;28;8777;-78
2022/06/07 02:13:34;;;;;;;;;2.00;1.00;;;;;;;;5107541;28;8745;-78
2022/06/07 02:16:00;;;;;;;;;1.00;1.00;;;;;;;;5106752;28;10003;-78
2022/06/07 02:18:25;;;;;;;;;0.75;0.75;;;;;;;;5125664;28;8832;-78
2022/06/07 02:20:50;;;;;;;;;1.00;1.00;;;;;;;;5125340;28;9560;-78
2022/06/07 02:23:15;;;;;;;;;0.75;0.75;;;;;;;;5125218;28;8800;-78
2022/06/07 02:25:44;;;;;;;;;1.00;1.00;;;;;;;;5125170;28;9690;-78
2022/06/07 02:28:11;;;;;;;;;0.50;0.50;;;;;;;;5125076;28;8757;-78
2022/06/07 02:30:37;;;;;;;;;1.75;0.00;;;;;;;;5125194;28;10003;-78
2022/06/07 02:33:03;;;;;;;;;1.00;1.00;;;;;;;;5107091;28;9838;-77
2022/06/07 02:35:28;;;;;;;;;0.00;0.00;;;;;;;;5125116;28;10113;-78
2022/06/07 02:37:53;;;;;;;;;2.00;0.75;;;;;;;;5106316;28;8789;-78
2022/06/07 02:40:19;;;;;;;;;0.75;0.75;;;;;;;;5125242;28;8820;-78
2022/06/07 02:42:44;;;;;;;;;1.00;1.00;;;;;;;;5125154;28;8814;-78
2022/06/07 02:45:11;;;;;;;;;1.00;1.00;;;;;;;;5124139;28;8788;-78
2022/06/07 02:47:36;;;;;;;;;0.00;0.00;;;;;;;;5106656;28;8781;-78
2022/06/07 02:50:02;;;;;;;;;0.00;0.00;;;;;;;;5125437;28;9613;-78
2022/06/07 02:52:27;;;;;;;;;0.50;0.50;;;;;;;;5105615;28;8796;-78
2022/06/07 02:54:52;;;;;;;;;0.75;0.75;;;;;;;;5125071;28;8839;-78
2022/06/07 02:57:17;;;;;;;;;2.00;1.00;;;;;;;;5106027;28;8879;-78
2022/06/07 02:59:43;;;;;;;;;1.00;1.00;;;;;;;;5124590;28;8800;-78
2022/06/07 03:02:08;;;;;;;;;4.25;2.00;;;;;;;;5124156;28;8817;-78
2022/06/07 03:04:33;;;;;;;;;1.00;0.50;;;;;;;;5106436;28;8823;-78
2022/06/07 03:07:00;;;;;;;;;1.00;1.00;;;;;;;;5124337;28;8792;-78
2022/06/07 03:09:26;;;;;;;;;1.75;0.50;;;;;;;;5124318;28;8798;-78
2022/06/07 03:11:51;;;;;;;;;0.00;0.00;;;;;;;;5124594;28;9790;-78
2022/06/07 03:14:16;;;;;;;;;0.75;0.75;;;;;;;;5124562;28;8777;-78
2022/06/07 03:16:42;;;;;;;;;0.75;0.75;;;;;;;;5124438;28;8831;-78
2022/06/07 03:19:07;;;;;;;;;1.00;1.00;;;;;;;;5106220;28;8807;-78
2022/06/07 03:21:32;;;;;;;;;0.00;0.00;;;;;;;;5105683;28;8804;-78
2022/06/07 03:23:58;;;;;;;;;1.00;1.00;;;;;;;;5106109;28;10086;-78
2022/06/07 03:26:23;;;;;;;;;1.00;1.00;;;;;;;;5124334;28;8864;-78
2022/06/07 03:28:48;;;;;;;;;1.00;0.75;;;;;;;;5124287;28;8834;-78
2022/06/07 03:31:15;;;;;;;;;0.00;0.00;;;;;;;;5105579;28;8808;-78
2022/06/07 03:33:41;;;;;;;;;0.50;0.50;;;;;;;;5105815;28;10129;-78
2022/06/07 03:36:12;;;;;;;;;1.00;1.00;;;;;;;;5123694;28;9773;-78
2022/06/07 03:38:37;;;;;;;;;0.75;0.75;;;;;;;;5124047;28;8773;-78
2022/06/07 03:41:03;;;;;;;;;1.50;0.50;;;;;;;;5124222;28;9807;-78
2022/06/07 03:43:28;;;;;;;;;0.50;0.50;;;;;;;;5124176;28;8800;-78
2022/06/07 03:45:53;;;;;;;;;1.00;1.00;;;;;;;;5123790;28;8811;-78
2022/06/07 03:48:18;;;;;;;;;1.00;1.00;;;;;;;;5124232;28;8812;-78
2022/06/07 03:50:44;;;;;;;;;0.50;0.50;;;;;;;;5123689;28;8931;-78
2022/06/07 03:53:11;;;;;;;;;1.50;0.75;;;;;;;;5123940;28;9669;-78
2022/06/07 03:55:40;;;;;;;;;0.00;0.00;;;;;;;;5123941;28;8883;-78
2022/06/07 03:58:05;;;;;;;;;0.00;0.00;;;;;;;;5105184;28;9836;-78
2022/06/07 04:00:30;;;;;;;;;1.25;1.25;;;;;;;;5123413;28;9875;-78
2022/06/07 04:02:56;;;;;;;;;1.25;1.00;;;;;;;;5123656;28;8793;-78
2022/06/07 04:05:21;;;;;;;;;0.75;0.00;;;;;;;;5123723;28;8911;-78
2022/06/07 04:10:30;;;;;;;;;1.25;1.00;;;;;;;;5123720;28;8920;-78
2022/06/07 04:12:56;;;;;;;;;0.75;0.75;;;;;;;;5105495;28;10120;-78
2022/06/07 04:15:21;;;;;;;;;0.00;0.00;;;;;;;;5123224;28;9342;-78
2022/06/07 04:17:48;;;;;;;;;2.00;1.00;;;;;;;;5104760;28;8821;-78
2022/06/07 04:20:13;;;;;;;;;0.25;0.25;;;;;;;;5123574;28;8922;-78
2022/06/07 04:22:38;;;;;;;;;1.50;0.00;;;;;;;;5098006;28;10133;-78
2022/06/07 04:25:04;;;;;;;;;0.25;0.25;;;;;;;;5105205;28;8800;-78
2022/06/07 04:27:29;;;;;;;;;1.00;1.00;;;;;;;;5123709;28;8785;-78
2022/06/07 04:29:54;;;;;;;;;0.00;0.00;;;;;;;;5123281;28;8982;-78
2022/06/07 04:32:20;;;;;;;;;1.50;1.00;;;;;;;;5123300;27;8955;-78
2022/06/07 04:34:45;;;;;;;;;2.00;0.75;;;;;;;;5122984;28;8781;-78
2022/06/07 04:37:11;;;;;;;;;1.25;0.75;;;;;;;;5123161;28;8793;-78
2022/06/07 04:39:36;;;;;;;;;1.75;0.50;;;;;;;;5104932;28;8807;-78
2022/06/07 04:42:01;;;;;;;;;1.00;1.00;;;;;;;;5104844;28;10215;-78
2022/06/07 04:44:27;;;;;;;;;0.75;0.75;;;;;;;;5123553;28;8796;-78
2022/06/07 04:46:52;;;;;;;;;1.00;1.00;;;;;;;;5122650;27;8816;-78
2022/06/07 04:49:17;;;;;;;;;2.25;0.75;;;;;;;;5104779;28;8839;-78
2022/06/07 04:51:42;;;;;;;;;0.00;0.00;;;;;;;;5104721;28;10294;-78
2022/06/07 04:54:09;;;;;;;;;0.25;0.00;;;;;;;;5105101;28;8817;-78
2022/06/07 04:56:35;;;;;;;;;0.50;0.00;;;;;;;;5123096;28;8857;-78
2022/06/07 04:59:01;;;;;;;;;2.75;1.00;;;;;;;;5104405;28;9919;-78
2022/06/07 05:01:28;;;;;;;;;3.00;1.25;;;;;;;;5115679;27;10276;-78
2022/06/07 05:03:54;;;;;;;;;0.00;0.00;;;;;;;;5116366;28;9686;-78
2022/06/07 05:06:21;;;;;;;;;0.00;0.00;;;;;;;;5122984;28;10039;-74
2022/06/07 05:08:46;;;;;;;;;1.25;1.00;;;;;;;;5099796;28;9871;-75
2022/06/07 05:11:11;;;;;;;;;1.00;1.00;;;;;;;;5098956;28;10215;-75
2022/06/07 05:13:37;;;;;;;;;1.75;1.00;;;;;;;;5117964;28;8779;-75
2022/06/07 05:16:03;;;;;;;;;0.75;0.75;;;;;;;;5116108;28;8804;-75
2022/06/07 05:18:28;;;;;;;;;0.50;0.50;;;;;;;;5096502;28;8853;-75
2022/06/07 05:20:53;;;;;;;;;2.00;1.00;;;;;;;;5114783;28;8942;-75
2022/06/07 05:23:18;;;;;;;;;1.00;1.00;;;;;;;;5121883;28;8871;-75
2022/06/07 05:25:58;;;;;;;;;1.00;1.00;;;;;;;;5125969;28;8861;-75
2022/06/07 05:28:23;;;;;;;;;2.00;1.00;;;;;;;;5126327;28;8898;-76
2022/06/07 05:30:49;;;;;;;;;1.00;1.00;;;;;;;;5105933;28;10348;-76
2022/06/07 05:33:14;;;;;;;;;2.00;1.00;;;;;;;;5125816;28;8807;-75
2022/06/07 05:35:39;;;;;;;;;2.50;1.75;;;;;;;;5119022;28;8857;-74
2022/06/07 05:38:05;;;;;;;;;1.25;1.00;;;;;;;;5100513;28;8993;-74
2022/06/07 05:40:30;;;;;;;;;1.50;1.50;;;;;;;;5125415;28;9023;-74
2022/06/07 05:42:56;;;;;;;;;2.75;1.00;;;;;;;;5118234;28;8864;-74
2022/06/07 05:45:22;;;;;;;;;0.00;0.00;;;;;;;;5124912;28;9826;-75
2022/06/07 05:47:47;;;;;;;;;3.00;1.75;;;;;;;;5110760;28;9987;-74
2022/06/07 05:50:12;;;;;;;;;3.00;1.00;;;;;;;;5112320;28;8838;-75
2022/06/07 05:52:40;;;;;;;;;1.00;1.00;;;;;;;;5116226;28;8800;-76
2022/06/07 05:55:05;;;;;;;;;2.00;0.75;;;;;;;;5121873;28;8800;-76
2022/06/07 05:57:31;;;;;;;;;2.25;0.75;;;;;;;;5113120;28;9946;-75
2022/06/07 05:59:56;;;;;;;;;1.00;1.00;;;;;;;;5106397;28;8926;-75
2022/06/07 06:02:21;;;;;;;;;1.00;1.00;;;;;;;;5121735;28;8859;-75
2022/06/07 06:04:47;;;;;;;;;0.00;0.00;;;;;;;;5125915;28;8781;-76
2022/06/07 06:07:12;;;;;;;;;2.75;1.00;;;;;;;;5125030;28;8889;-76
2022/06/07 06:12:21;;;;;;;;;1.00;1.00;;;;;;;;5104902;28;8795;-74
2022/06/07 06:14:48;;;;;;;;;0.00;0.00;;;;;;;;5104823;28;9882;-75
2022/06/07 06:17:13;;;;;;;;;1.00;1.00;;;;;;;;5106824;28;8772;-76
2022/06/07 06:19:38;;;;;;;;;0.00;0.00;;;;;;;;5099836;28;10442;-76
2022/06/07 06:22:05;;;;;;;;;1.25;0.25;;;;;;;;5123763;28;8828;-76
2022/06/07 06:24:32;;;;;;;;;0.00;0.00;;;;;;;;5092198;28;9426;-75
2022/06/07 06:26:58;;;;;;;;;0.00;0.00;;;;;;;;5112805;28;9833;-76
2022/06/07 06:29:24;;;;;;;;;1.00;1.00;;;;;;;;5104364;28;9999;-75
2022/06/07 06:31:51;;;;;;;;;1.75;0.00;;;;;;;;5104498;28;9658;-76
2022/06/07 06:34:17;;;;;;;;;0.00;0.00;;;;;;;;5086325;28;9798;-75
2022/06/07 06:36:42;;;;;;;;;0.00;0.00;;;;;;;;5114860;27;9747;-77
2022/06/07 06:39:07;;;;;;;;;1.25;0.25;;;;;;;;5114237;28;8813;-76
2022/06/07 06:41:33;;;;;;;;;1.00;0.00;;;;;;;;5115633;28;8829;-79
2022/06/07 06:44:02;;;;;;;;;2.00;0.00;;;;;;;;5096249;28;8796;-76
2022/06/07 06:46:29;;;;;;;;;2.00;0.75;;;;;;;;5116607;28;8987;-76
2022/06/07 06:48:55;;;;;;;;;0.00;0.00;;;;;;;;5117132;28;9891;-76
2022/06/07 06:51:21;;;;;;;;;0.00;0.00;;;;;;;;5124146;28;9794;-75
2022/06/07 06:53:47;;;;;;;;;0.00;0.00;;;;;;;;5105752;28;8768;-76
2022/06/07 06:56:14;;;;;;;;;0.50;0.00;;;;;;;;5122817;28;9772;-76
2022/06/07 06:58:40;;;;;;;;;0.00;0.00;;;;;;;;5123141;28;8815;-76
2022/06/07 07:01:07;;;;;;;;;0.50;0.50;;;;;;;;5105548;28;9578;-76
2022/06/07 07:03:33;;;;;;;;;0.00;0.00;;;;;;;;5106410;28;10673;-76
2022/06/07 07:05:59;;;;;;;;;0.00;0.00;;;;;;;;5106078;28;9864;-76
2022/06/07 07:08:25;;;;;;;;;1.00;0.50;;;;;;;;5106643;28;9954;-76
2022/06/07 07:11:01;;;;;;;;;0.00;0.00;;;;;;;;5123126;28;10609;-76
2022/06/07 07:13:27;;;;;;;;;0.00;0.00;;;;;;;;5123620;28;9666;-76
2022/06/07 07:15:52;;;;;;;;;0.00;0.00;;;;;;;;5114551;28;9559;-76
2022/06/07 07:18:17;;;;;;;;;0.00;0.00;;;;;;;;5113488;28;8798;-77
2022/06/07 07:20:42;;;;;;;;;0.00;0.00;;;;;;;;5113043;28;8844;-76
2022/06/07 07:23:08;;;;;;;;;0.00;0.00;;;;;;;;5114823;28;8785;-76
2022/06/07 07:25:33;;;;;;;;;0.00;0.00;;;;;;;;5106540;28;8799;-77
2022/06/07 07:27:58;;;;;;;;;0.00;0.00;;;;;;;;5103685;28;8803;-76
2022/06/07 07:30:24;;;;;;;;;0.00;0.00;;;;;;;;5085500;28;8850;-77
2022/06/07 07:32:49;;;;;;;;;0.00;0.00;;;;;;;;5118588;28;9574;-76
2022/06/07 07:35:17;;;;;;;;;0.00;0.00;;;;;;;;5124405;28;9424;-76
2022/06/07 07:37:42;;;;;;;;;0.00;0.00;;;;;;;;5105451;28;10209;-76
2022/06/07 07:40:08;;;;;;;;;0.00;0.00;;;;;;;;5124051;28;9571;-76
2022/06/07 07:42:33;;;;;;;;;0.00;0.00;;;;;;;;5112918;27;8899;-76
2022/06/07 07:44:59;;;;;;;;;0.00;0.00;;;;;;;;5095357;28;8955;-76
2022/06/07 07:47:24;;;;;;;;;0.00;0.00;;;;;;;;5114463;28;8868;-76
2022/06/07 07:49:49;;;;;;;;;0.00;0.00;;;;;;;;5099658;28;8816;-76
2022/06/07 07:52:18;;;;;;;;;0.00;0.00;;;;;;;;5123853;28;8797;-76
2022/06/07 07:54:44;;;;;;;;;0.33;0.00;;;;;;;;5124213;28;8842;-76
2022/06/07 07:57:09;;;;;;;;;0.00;0.00;;;;;;;;5123554;28;9563;-76
2022/06/07 07:59:35;;;;;;;;;0.00;0.00;;;;;;;;5123527;28;8808;-76
2022/06/07 08:02:00;;;;;;;;;0.00;0.00;;;;;;;;5123428;28;8891;-76
2022/06/07 08:04:25;;;;;;;;;0.00;0.00;;;;;;;;5120339;28;8818;-76
2022/06/07 08:06:51;;;;;;;;;0.00;0.00;;;;;;;;5095114;28;8826;-76
2022/06/07 08:09:18;;;;;;;;;1.00;0.00;;;;;;;;5102946;28;8803;-76
2022/06/07 08:11:44;;;;;;;;;0.00;0.00;;;;;;;;5084674;28;8798;-76
2022/06/07 08:14:11;;;;;;;;;0.00;0.00;;;;;;;;5084890;28;10262;-77
2022/06/07 08:16:37;;;;;;;;;0.00;0.00;;;;;;;;5114133;28;9683;-76
2022/06/07 08:19:03;;;;;;;;;0.67;0.00;;;;;;;;5105336;28;9575;-76
2022/06/07 08:21:28;;;;;;;;;0.00;0.00;;;;;;;;5123684;28;8821;-76
2022/06/07 08:23:54;;;;;;;;;0.67;0.67;;;;;;;;5105149;28;8821;-76
2022/06/07 08:26:20;;;;;;;;;0.00;0.00;;;;;;;;5123005;28;8792;-76
2022/06/07 08:28:46;;;;;;;;;0.00;0.00;;;;;;;;5123689;28;9570;-76
2022/06/07 08:31:12;;;;;;;;;0.67;0.00;;;;;;;;5123129;28;9271;-76
2022/06/07 08:39:06;;;;;;;;;1.00;0.00;;;;;;;;5120939;28;9495;-76
2022/06/07 08:41:34;;;;;;;;;0.33;0.33;;;;;;;;5103271;28;9462;-77
2022/06/07 08:44:22;;;;;;;;;2.00;0.33;;;;;;;;5084417;28;8750;-76
2022/06/07 08:46:49;;;;;;;;;1.00;1.00;;;;;;;;5095065;28;10048;-76
2022/06/07 08:49:15;;;;;;;;;0.00;0.00;;;;;;;;5105591;28;9270;-76
2022/06/07 08:51:44;;;;;;;;;0.00;0.00;;;;;;;;5098769;28;9580;-76
2022/06/07 08:54:17;;;;;;;;;2.00;0.67;;;;;;;;5099533;28;8810;-77
2022/06/07 08:56:44;;;;;;;;;0.00;0.00;;;;;;;;5084658;28;10061;-74
2022/06/07 08:59:11;;;;;;;;;0.00;0.00;;;;;;;;5122805;28;9380;-76
2022/06/07 09:01:49;;;;;;;;;1.00;1.00;;;;;;;;5122180;28;9503;-77
2022/06/07 09:04:21;;;;;;;;;0.00;0.00;;;;;;;;5104639;28;9419;-77
2022/06/07 09:06:48;;;;;;;;;2.67;1.00;;;;;;;;5114240;28;9658;-76
2022/06/07 09:09:15;;;;;;;;;0.00;0.00;;;;;;;;5091322;28;9575;-76
2022/06/07 09:14:29;;;;;;;;;0.00;0.00;;;;;;;;5112404;28;9293;-76
2022/06/07 09:16:56;;;;;;;;;0.00;0.00;;;;;;;;5116750;28;9565;-76
2022/06/07 09:19:25;;;;;;;;;0.33;0.33;;;;;;;;5102691;28;9319;-76
2022/06/07 09:21:51;;;;;;;;;1.00;0.00;;;;;;;;5102141;28;9493;-76
2022/06/07 09:24:30;;;;;;;;;0.00;0.00;;;;;;;;5102029;28;9395;-77
2022/06/07 09:27:10;;;;;;;;;0.00;0.00;;;;;;;;5083951;28;10144;-76
2022/06/07 09:29:38;;;;;;;;;0.00;0.00;;;;;;;;5102446;28;9617;-76
2022/06/07 09:32:08;;;;;;;;;0.00;0.00;;;;;;;;5105872;28;9486;-76
2022/06/07 09:34:33;;;;;;;;;0.00;0.00;;;;;;;;5123430;28;9464;-76
2022/06/07 09:37:03;;;;;;;;;0.50;0.00;;;;;;;;5122009;28;10432;-77
2022/06/07 09:39:33;;;;;;;;;0.00;0.00;;;;;;;;5103886;28;8733;-77
2022/06/07 09:42:18;;;;;;;;;1.00;0.00;;;;;;;;5099484;28;9706;-77
2022/06/07 09:44:53;;;;;;;;;1.00;0.00;;;;;;;;5102170;28;9454;-76
2022/06/07 09:47:25;;;;;;;;;1.00;0.00;;;;;;;;5101718;28;9712;-76
2022/06/07 09:50:11;;;;;;;;;0.25;0.25;;;;;;;;5111505;28;10453;-76
2022/06/07 09:52:47;;;;;;;;;0.00;0.00;;;;;;;;5121690;28;9523;-77
2022/06/07 09:55:18;;;;;;;;;1.00;0.00;;;;;;;;5107728;28;9543;-77
2022/06/07 09:57:57;;;;;;;;;0.00;0.00;;;;;;;;5121895;28;9714;-76
2022/06/07 10:00:32;;;;;;;;;0.00;0.00;;;;;;;;5104949;28;9556;-77
2022/06/07 10:03:16;;;;;;;;;0.00;0.00;;;;;;;;5104613;28;9532;-76
2022/06/07 10:06:01;;;;;;;;;0.00;0.00;;;;;;;;5105084;28;9415;-77
2022/06/07 10:08:29;;;;;;;;;0.00;0.00;;;;;;;;5104249;28;9213;-76
2022/06/07 10:11:02;;;;;;;;;0.00;0.00;;;;;;;;5086794;28;9557;-77
2022/06/07 10:13:43;;;;;;;;;0.00;0.00;;;;;;;;5094217;28;9447;-76
2022/06/07 10:16:22;;;;;;;;;0.00;0.00;;;;;;;;5114278;28;9426;-76
2022/06/07 10:19:01;;;;;;;;;0.00;0.00;;;;;;;;5094618;28;10109;-77
2022/06/07 10:21:27;;;;;;;;;0.00;0.00;;;;;;;;5094206;28;9337;-76
2022/06/07 10:24:12;;;;;;;;;0.00;0.00;;;;;;;;5120307;28;9430;-77
2022/06/07 10:26:37;;;;;;;;;0.00;0.00;;;;;;;;5104136;28;8775;-77
2022/06/07 10:29:06;;;;;;;;;0.00;0.00;;;;;;;;5104815;28;9494;-76
2022/06/07 10:31:31;;;;;;;;;0.00;0.00;;;;;;;;5104584;28;8826;-78
2022/06/07 10:34:15;;;;;;;;;0.00;0.00;;;;;;;;5086147;28;9347;-74
2022/06/07 10:36:47;;;;;;;;;0.33;0.00;;;;;;;;5091859;28;8788;-76
2022/06/07 10:39:20;;;;;;;;;2.67;0.00;;;;;;;;5124502;28;9594;-79
2022/06/07 10:41:48;;;;;;;;;1.00;1.00;;;;;;;;5103970;28;9181;-80
2022/06/07 10:44:20;;;;;;;;;0.00;0.00;;;;;;;;5109502;28;9229;-76
2022/06/07 10:46:46;;;;;;;;;0.00;0.00;;;;;;;;5091468;28;9210;-76
2022/06/07 10:49:15;;;;;;;;;0.33;0.00;;;;;;;;5085972;28;9213;-80
2022/06/07 10:54:39;;;;;;;;;0.00;0.00;;;;;;;;5104664;28;9238;-77
2022/06/07 10:57:12;;;;;;;;;0.00;0.00;;;;;;;;5104084;28;9346;-78
2022/06/07 10:59:39;;;;;;;;;0.00;0.00;;;;;;;;5098620;28;9927;-76
2022/06/07 11:02:20;;;;;;;;;0.00;0.00;;;;;;;;5112949;28;9385;-79
2022/06/07 11:10:29;;;;;;;;;0.00;0.00;;;;;;;;5114137;28;9186;-78
2022/06/07 11:13:16;;;;;;;;;0.00;0.00;;;;;;;;5096177;28;9242;-78
2022/06/07 11:15:51;;;;;;;;;0.00;0.00;;;;;;;;5113392;28;9365;-80
2022/06/07 11:18:19;;;;;;;;;0.00;0.00;;;;;;;;5106492;28;9348;-79
2022/06/07 11:21:01;;;;;;;;;0.00;0.00;;;;;;;;5090771;28;9461;-84
2022/06/07 11:23:29;;;;;;;;;0.00;0.00;;;;;;;;5094178;28;8841;-79
2022/06/07 11:26:15;;;;;;;;;0.00;0.00;;;;;;;;5088262;28;9195;-82
2022/06/07 11:28:40;;;;;;;;;0.00;0.00;;;;;;;;5116042;28;9376;-79
2022/06/07 11:31:21;;;;;;;;;0.00;0.00;;;;;;;;5123868;28;9359;-79
2022/06/07 11:33:52;;;;;;;;;2.00;0.00;;;;;;;;5098484;28;8797;-79
2022/06/07 11:36:20;;;;;;;;;0.00;0.00;;;;;;;;5109372;28;9405;-79
2022/06/07 11:38:55;;;;;;;;;0.00;0.00;;;;;;;;5093704;28;9273;-79
2022/06/07 11:41:44;;;;;;;;;0.00;0.00;;;;;;;;5090914;28;10146;-78
2022/06/07 11:44:12;;;;;;;;;0.00;0.00;;;;;;;;5020397;28;9446;-79
2022/06/07 11:46:49;;;;;;;;;0.00;0.00;;;;;;;;5004000;28;9164;-79
2022/06/07 11:49:18;;;;;;;;;1.33;0.00;;;;;;;;5020420;28;9172;-79
2022/06/07 11:51:57;;;;;;;;;0.00;0.00;;;;;;;;5028020;28;9490;-79
2022/06/07 11:54:38;;;;;;;;;1.00;0.00;;;;;;;;5040293;28;9070;-79
2022/06/07 11:57:18;;;;;;;;;0.00;0.00;;;;;;;;5040476;28;8897;-78
2022/06/07 11:59:45;;;;;;;;;0.00;0.00;;;;;;;;5034701;28;8852;-79
2022/06/07 12:02:21;;;;;;;;;0.00;0.00;;;;;;;;5016645;28;10427;-79
2022/06/07 12:04:47;;;;;;;;;0.00;0.00;;;;;;;;5040741;28;9074;-76
2022/06/07 12:07:15;;;;;;;;;0.00;0.00;;;;;;;;5026806;28;9148;-77
2022/06/07 12:09:45;;;;;;;;;0.00;0.00;;;;;;;;5040728;28;8864;-77
2022/06/07 12:12:18;;;;;;;;;0.00;0.00;;;;;;;;5040419;28;9140;-77
2022/06/07 12:14:49;;;;;;;;;1.00;0.00;;;;;;;;5023938;28;8965;-77
2022/06/07 12:17:25;;;;;;;;;0.00;0.00;;;;;;;;5036468;28;8763;-77
2022/06/07 12:19:51;;;;;;;;;0.00;0.00;;;;;;;;5034477;28;8791;-77
2022/06/07 12:22:18;;;;;;;;;0.25;0.00;;;;;;;;5119951;28;8822;-77
2022/06/07 12:24:46;;;;;;;;;0.00;0.00;;;;;;;;5105151;28;8946;-77
2022/06/07 12:27:18;;;;;;;;;0.00;0.00;;;;;;;;5104962;28;8879;-75
2022/06/07 12:29:44;;;;;;;;;0.50;0.00;;;;;;;;5123423;28;8798;-75
2022/06/07 12:32:16;;;;;;;;;0.00;0.00;;;;;;;;5104339;28;10539;-75
2022/06/07 12:34:42;;;;;;;;;0.00;0.00;;;;;;;;5123514;28;8732;-75
2022/06/07 12:37:10;;;;;;;;;0.00;0.00;;;;;;;;5116366;28;8785;-75
2022/06/07 12:39:45;;;;;;;;;0.00;0.00;;;;;;;;5104539;28;8807;-75
2022/06/07 12:42:15;;;;;;;;;0.00;0.00;;;;;;;;5098197;28;10156;-75
2022/06/07 12:44:41;;;;;;;;;0.00;0.00;;;;;;;;5084266;28;8750;-75
2022/06/07 12:47:19;;;;;;;;;0.00;0.00;;;;;;;;5112653;28;8900;-75
2022/06/07 12:49:45;;;;;;;;;0.00;0.00;;;;;;;;5102751;28;8771;-75
2022/06/07 12:52:17;;;;;;;;;0.00;0.00;;;;;;;;5104978;28;8951;-75
2022/06/07 12:54:50;;;;;;;;;1.00;0.00;;;;;;;;5084382;28;8755;-75
2022/06/07 12:57:35;;;;;;;;;0.00;0.00;;;;;;;;5102639;28;8774;-75
2022/06/07 13:00:14;;;;;;;;;0.00;0.00;;;;;;;;5088107;28;8798;-75
2022/06/07 13:02:43;;;;;;;;;0.00;0.00;;;;;;;;5102060;28;8743;-75
2022/06/07 13:05:10;;;;;;;;;0.00;0.00;;;;;;;;5102563;28;8735;-75
2022/06/07 13:07:45;;;;;;;;;0.00;0.00;;;;;;;;5083419;28;8806;-75
2022/06/07 13:10:19;;;;;;;;;0.00;0.00;;;;;;;;5102635;28;8775;-75
2022/06/07 13:12:46;;;;;;;;;0.00;0.00;;;;;;;;5102214;28;8783;-75
2022/06/07 13:15:16;;;;;;;;;0.00;0.00;;;;;;;;5102161;28;8752;-75
2022/06/07 13:17:51;;;;;;;;;0.00;0.00;;;;;;;;5088872;28;8788;-75
2022/06/07 13:20:25;;;;;;;;;0.00;0.00;;;;;;;;5109581;28;8803;-75
2022/06/07 13:22:51;;;;;;;;;0.00;0.00;;;;;;;;5110260;28;9715;-76
2022/06/07 13:25:24;;;;;;;;;0.00;0.00;;;;;;;;5104846;28;8813;-76
2022/06/07 13:27:53;;;;;;;;;0.00;0.00;;;;;;;;5112639;28;8785;-75
2022/06/07 13:30:21;;;;;;;;;0.00;0.00;;;;;;;;5118744;28;9660;-82
2022/06/07 13:32:46;;;;;;;;;0.00;0.00;;;;;;;;5107079;28;10255;-80
2022/06/07 13:35:24;;;;;;;;;0.00;0.00;;;;;;;;5113134;28;8831;-80
2022/06/07 13:38:20;;;;;;;;;0.00;0.00;;;;;;;;5115179;28;8758;-80
2022/06/07 13:40:46;;;;;;;;;0.00;0.00;;;;;;;;5114914;28;8890;-80
2022/06/07 13:43:15;;;;;;;;;0.00;0.00;;;;;;;;5116190;28;8818;-81
2022/06/07 13:45:51;;;;;;;;;0.75;0.00;;;;;;;;5094691;28;8747;-81
2022/06/07 13:48:19;;;;;;;;;0.00;0.00;;;;;;;;5102151;28;8860;-80
2022/06/07 13:54:00;;;;;;;;;0.00;0.00;;;;;;;;5115873;28;8771;-81
2022/06/07 13:56:25;;;;;;;;;0.00;0.00;;;;;;;;5097820;28;9014;-80
2022/06/07 13:58:52;;;;;;;;;0.00;0.00;;;;;;;;5109176;28;8795;-80
2022/06/07 14:01:33;;;;;;;;;0.00;0.00;;;;;;;;5104873;28;8841;-80
2022/06/07 14:04:00;;;;;;;;;0.00;0.00;;;;;;;;5086817;28;10240;-80
2022/06/07 14:06:30;;;;;;;;;0.00;0.00;;;;;;;;5086335;28;8776;-81
2022/06/07 14:08:56;;;;;;;;;0.00;0.00;;;;;;;;5104335;28;8884;-81
2022/06/07 14:11:22;;;;;;;;;0.00;0.00;;;;;;;;5105242;28;8796;-80
2022/06/07 14:13:48;;;;;;;;;0.00;0.00;;;;;;;;5118876;28;8870;-81
2022/06/07 14:16:19;;;;;;;;;0.00;0.00;;;;;;;;5100023;28;8884;-81
2022/06/07 14:18:45;;;;;;;;;0.00;0.00;;;;;;;;5094271;28;8813;-81
2022/06/07 14:21:11;;;;;;;;;0.00;0.00;;;;;;;;5117380;28;8822;-82
2022/06/07 14:23:36;;;;;;;;;0.00;0.00;;;;;;;;5122015;28;8808;-81
2022/06/07 14:26:02;;;;;;;;;0.00;0.00;;;;;;;;5124007;28;8821;-81
2022/06/07 14:28:27;;;;;;;;;0.67;0.00;;;;;;;;5096757;28;8807;-81
2022/06/07 14:30:54;;;;;;;;;0.00;0.00;;;;;;;;5116095;28;8897;-82
2022/06/07 14:33:22;;;;;;;;;0.50;0.00;;;;;;;;5099831;28;10313;-82
2022/06/07 14:35:48;;;;;;;;;0.00;0.00;;;;;;;;5107719;27;8787;-83
2022/06/07 14:38:15;;;;;;;;;0.75;0.00;;;;;;;;5089125;28;8856;-82
2022/06/07 14:40:42;;;;;;;;;0.00;0.00;;;;;;;;5124153;28;8824;-77
2022/06/07 14:43:09;;;;;;;;;0.00;0.00;;;;;;;;5097837;28;8843;-83
2022/06/07 14:45:40;;;;;;;;;0.00;0.00;;;;;;;;5121162;28;9747;-78
2022/06/07 14:48:07;;;;;;;;;0.00;0.00;;;;;;;;5111297;28;8746;-77
2022/06/07 14:50:34;;;;;;;;;0.00;0.00;;;;;;;;5114041;28;8797;-77
2022/06/07 14:53:00;;;;;;;;;0.67;0.00;;;;;;;;5094739;28;8900;-75
2022/06/07 14:55:27;;;;;;;;;1.00;0.00;;;;;;;;5112904;28;8876;-75
2022/06/07 14:57:55;;;;;;;;;0.25;0.00;;;;;;;;5093749;28;8924;-75
2022/06/07 15:00:22;;;;;;;;;0.75;0.00;;;;;;;;5111711;28;8899;-75
2022/06/07 15:02:52;;;;;;;;;0.00;0.00;;;;;;;;5113969;28;8783;-75
2022/06/07 15:05:20;;;;;;;;;0.00;0.00;;;;;;;;5093022;28;8749;-75
2022/06/07 15:07:49;;;;;;;;;0.25;0.00;;;;;;;;5093864;28;8834;-75
2022/06/07 15:10:16;;;;;;;;;0.00;0.00;;;;;;;;5095449;28;8847;-75
2022/06/07 15:12:42;;;;;;;;;0.00;0.00;;;;;;;;5110627;28;9581;-74
2022/06/07 15:15:07;;;;;;;;;0.00;0.00;;;;;;;;5110439;28;9305;-75
2022/06/07 15:17:35;;;;;;;;;0.00;0.00;;;;;;;;5105702;28;8937;-76
2022/06/07 15:20:03;;;;;;;;;0.00;0.00;;;;;;;;5090834;28;8748;-75
2022/06/07 15:22:28;;;;;;;;;0.00;0.00;;;;;;;;5094031;28;8765;-75
2022/06/07 15:24:54;;;;;;;;;0.00;0.00;;;;;;;;5096848;28;8838;-75
2022/06/07 15:27:21;;;;;;;;;0.00;0.00;;;;;;;;5094998;28;8855;-75
2022/06/07 15:29:53;;;;;;;;;0.00;0.00;;;;;;;;5098643;28;8791;-75
2022/06/07 15:32:21;;;;;;;;;0.00;0.00;;;;;;;;5095705;28;10186;-74
2022/06/07 15:34:48;;;;;;;;;0.00;0.00;;;;;;;;5110254;28;8820;-74